createdAt,value
2019-04-06T00:02:36.115Z,62.93
2019-04-06T00:05:05.995Z,58.90
2019-04-06T00:07:34.128Z,57.73
2019-04-06T00:10:02.275Z,61.00
2019-04-06T00:12:30.527Z,64.17
2019-04-06T00:14:58.676Z,61.27
2019-04-06T00:17:26.793Z,57.83
2019-04-06T00:19:54.903Z,69.23
2019-04-06T00:22:23.121Z,63.00
2019-04-06T00:24:51.309Z,63.27
2019-04-06T00:27:19.498Z,69.60
2019-04-06T00:29:47.677Z,69.70
2019-04-06T00:32:17.521Z,62.20
2019-04-06T00:34:45.663Z,62.17
2019-04-06T00:37:13.968Z,64.30
2019-04-06T00:39:42.174Z,64.97
2019-04-06T00:42:10.403Z,61.13
2019-04-06T00:44:38.544Z,70.23
2019-04-06T00:47:06.712Z,64.63
2019-04-06T00:49:34.924Z,67.23
2019-04-06T00:52:03.060Z,64.60
2019-04-06T00:54:31.258Z,67.10
2019-04-06T00:56:59.455Z,62.83
2019-04-06T00:59:27.712Z,66.97
2019-04-06T01:01:55.983Z,59.83
2019-04-06T01:04:24.212Z,59.30
2019-04-06T01:06:52.427Z,69.10
2019-04-06T01:09:20.656Z,62.10
2019-04-06T01:11:48.845Z,64.67
2019-04-06T01:14:17.102Z,62.83
2019-04-06T01:16:45.346Z,58.63
2019-04-06T01:19:13.543Z,59.80
2019-04-06T01:21:41.729Z,57.03
2019-04-06T01:24:09.899Z,61.60
2019-04-06T01:26:38.046Z,60.03
2019-04-06T01:29:06.174Z,59.80
2019-04-06T01:31:34.319Z,56.80
2019-04-06T01:34:02.439Z,58.10
2019-04-06T01:36:30.551Z,58.50
2019-04-06T01:38:58.699Z,57.27
2019-04-06T01:41:26.890Z,60.17
2019-04-06T01:43:55.028Z,58.03
2019-04-06T01:46:23.222Z,59.17
2019-04-06T01:48:51.350Z,59.50
2019-04-06T01:51:19.477Z,60.07
2019-04-06T01:53:47.618Z,54.77
2019-04-06T01:56:18.737Z,61.27
2019-04-06T01:58:45.594Z,58.23
2019-04-06T02:01:18.141Z,60.40
2019-04-06T02:03:46.300Z,65.53
2019-04-06T02:06:14.472Z,59.57
2019-04-06T02:08:42.588Z,59.13
2019-04-06T02:11:10.715Z,54.00
2019-04-06T02:13:38.838Z,59.13
2019-04-06T02:16:06.980Z,59.83
2019-04-06T02:18:35.102Z,63.17
2019-04-06T02:21:03.241Z,56.83
2019-04-06T02:23:31.358Z,65.30
2019-04-06T02:25:59.621Z,62.97
2019-04-06T02:28:27.741Z,64.30
2019-04-06T02:31:09.316Z,61.27
2019-04-06T02:33:51.420Z,57.73
2019-04-06T02:36:26.911Z,66.73
2019-04-06T02:38:59.478Z,66.20
2019-04-06T02:41:45.685Z,66.70
2019-04-06T02:44:13.930Z,71.03
2019-04-06T02:46:42.099Z,65.23
2019-04-06T02:49:10.347Z,63.13
2019-04-06T02:51:38.514Z,70.83
2019-04-06T02:54:06.707Z,70.53
2019-04-06T02:56:45.936Z,61.97
2019-04-06T02:59:04.751Z,65.00
2019-04-06T03:01:33.034Z,67.83
2019-04-06T03:04:01.237Z,63.60
2019-04-06T03:06:29.427Z,66.33
2019-04-06T03:08:57.659Z,59.73
2019-04-06T03:11:25.852Z,68.90
2019-04-06T03:13:54.012Z,71.10
2019-04-06T03:16:22.133Z,68.67
2019-04-06T03:18:50.270Z,70.20
2019-04-06T03:21:18.407Z,79.60
2019-04-06T03:23:51.457Z,64.67
2019-04-06T03:26:16.677Z,62.33
2019-04-06T03:28:44.909Z,66.93
2019-04-06T03:31:13.472Z,78.13
2019-04-06T03:33:41.850Z,68.93
2019-04-06T03:36:10.224Z,74.70
2019-04-06T03:38:38.683Z,74.07
2019-04-06T03:41:06.890Z,77.27
2019-04-06T03:43:35.049Z,68.20
2019-04-06T03:46:03.191Z,71.10
2019-04-06T03:48:31.429Z,70.87
2019-04-06T03:50:59.757Z,71.63
2019-04-06T03:53:27.994Z,83.60
2019-04-06T03:55:56.165Z,75.50
2019-04-06T03:58:24.323Z,63.90
2019-04-06T04:00:52.757Z,67.90
2019-04-06T04:03:21.152Z,70.23
2019-04-06T04:05:49.280Z,79.27
2019-04-06T04:08:17.485Z,68.10
2019-04-06T04:10:47.435Z,75.30
2019-04-06T04:13:15.557Z,79.60
2019-04-06T04:15:43.930Z,74.73
2019-04-06T04:18:12.138Z,75.97
2019-04-06T04:20:40.341Z,72.97
2019-04-06T04:23:08.604Z,66.60
2019-04-06T04:25:36.835Z,74.37
2019-04-06T04:28:05.170Z,63.50
2019-04-06T04:30:34.536Z,61.93
2019-04-06T04:33:03.281Z,67.47
2019-04-06T04:35:31.541Z,74.20
2019-04-06T04:37:59.710Z,63.83
2019-04-06T04:40:27.862Z,66.60
2019-04-06T04:42:55.990Z,70.90
2019-04-06T04:45:24.227Z,68.80
2019-04-06T04:47:52.412Z,78.63
2019-04-06T04:50:20.566Z,67.23
2019-04-06T04:52:48.704Z,70.17
2019-04-06T04:55:16.831Z,70.90
2019-04-06T04:57:45.680Z,63.77
2019-04-06T05:00:14.115Z,75.37
2019-04-06T05:02:42.250Z,74.27
2019-04-06T05:05:10.447Z,76.57
2019-04-06T05:07:38.555Z,73.07
2019-04-06T05:10:06.776Z,80.00
2019-04-06T05:12:35.784Z,82.97
2019-04-06T05:15:11.652Z,88.60
2019-04-06T05:17:39.768Z,80.63
2019-04-06T05:20:08.297Z,77.63
2019-04-06T05:22:36.691Z,79.40
2019-04-06T05:25:05.610Z,67.43
2019-04-06T05:27:33.769Z,67.53
2019-04-06T05:30:01.913Z,76.27
2019-04-06T05:32:30.091Z,70.60
2019-04-06T05:34:58.539Z,70.17
2019-04-06T05:37:26.911Z,79.53
2019-04-06T05:39:55.035Z,71.10
2019-04-06T05:42:23.366Z,72.37
2019-04-06T05:44:51.462Z,71.73
2019-04-06T05:47:19.600Z,76.50
2019-04-06T05:49:47.727Z,82.80
2019-04-06T05:52:15.939Z,71.50
2019-04-06T05:54:44.124Z,66.20
2019-04-06T05:57:12.257Z,71.50
2019-04-06T05:59:41.038Z,63.07
2019-04-06T06:02:09.961Z,71.20
2019-04-06T06:04:41.007Z,66.13
2019-04-06T06:07:08.562Z,71.37
2019-04-06T06:09:36.677Z,66.13
2019-04-06T06:12:04.907Z,71.50
2019-04-06T06:14:33.086Z,69.53
2019-04-06T06:17:01.219Z,58.60
2019-04-06T06:19:29.327Z,58.33
2019-04-06T06:21:57.496Z,74.10
2019-04-06T06:24:25.659Z,58.60
2019-04-06T06:26:53.813Z,63.73
2019-04-06T06:29:22.235Z,56.37
2019-04-06T06:31:50.524Z,60.73
2019-04-06T06:34:18.628Z,58.10
2019-04-06T06:36:46.780Z,58.60
2019-04-06T06:39:15.058Z,60.00
2019-04-06T06:41:43.235Z,55.83
2019-04-06T06:44:11.367Z,53.07
2019-04-06T06:46:39.584Z,54.37
2019-04-06T06:49:07.852Z,52.17
2019-04-06T06:51:36.173Z,43.03
2019-04-06T06:54:04.434Z,49.77
2019-04-06T06:56:32.673Z,48.00
2019-04-06T06:59:00.793Z,41.13
2019-04-06T07:01:28.918Z,34.77
2019-04-06T07:03:57.082Z,36.03
2019-04-06T07:06:25.288Z,35.27
2019-04-06T07:08:53.400Z,31.53
2019-04-06T07:11:21.541Z,33.97
2019-04-06T07:13:49.669Z,38.60
2019-04-06T07:16:17.772Z,32.27
2019-04-06T07:18:45.922Z,35.43
2019-04-06T07:21:16.567Z,34.50
2019-04-06T07:23:44.140Z,34.80
2019-04-06T07:26:12.255Z,35.90
2019-04-06T07:28:40.396Z,35.40
2019-04-06T07:31:08.517Z,35.37
2019-04-06T07:33:36.689Z,35.50
2019-04-06T07:36:04.925Z,27.73
2019-04-06T07:38:33.063Z,26.87
2019-04-06T07:41:01.253Z,24.80
2019-04-06T07:43:29.555Z,25.23
2019-04-06T07:45:57.723Z,25.63
2019-04-06T07:48:25.874Z,29.43
2019-04-06T07:50:53.988Z,24.60
2019-04-06T07:53:22.126Z,25.93
2019-04-06T07:55:50.248Z,26.93
2019-04-06T07:58:18.374Z,26.77
2019-04-06T08:00:46.560Z,26.70
2019-04-06T08:03:14.810Z,27.40
2019-04-06T08:05:43.191Z,26.20
2019-04-06T08:08:11.422Z,26.90
2019-04-06T08:10:39.544Z,28.27
2019-04-06T08:13:07.737Z,23.07
2019-04-06T08:15:35.869Z,23.93
2019-04-06T08:18:04.100Z,23.23
2019-04-06T08:20:32.285Z,23.03
2019-04-06T08:23:00.482Z,21.23
2019-04-06T08:25:28.843Z,20.57
2019-04-06T08:27:57.089Z,24.30
2019-04-06T08:30:25.208Z,21.50
2019-04-06T08:32:53.334Z,22.00
2019-04-06T08:35:26.083Z,21.60
2019-04-06T08:37:51.667Z,24.73
2019-04-06T08:40:20.021Z,20.33
2019-04-06T08:42:48.228Z,23.03
2019-04-06T08:45:16.496Z,25.40
2019-04-06T08:47:44.780Z,22.10
2019-04-06T08:50:13.836Z,11.17
2019-04-06T08:52:42.175Z,6.73
2019-04-06T08:55:10.519Z,8.03
2019-04-06T08:57:38.684Z,12.10
2019-04-06T09:00:07.031Z,12.23
2019-04-06T09:02:35.424Z,12.73
2019-04-06T09:05:04.972Z,12.13
2019-04-06T09:07:33.324Z,15.17
2019-04-06T09:10:01.457Z,14.10
2019-04-06T09:12:29.639Z,16.67
2019-04-06T09:14:57.932Z,13.00
2019-04-06T09:17:26.067Z,14.27
2019-04-06T09:19:54.290Z,14.70
2019-04-06T09:22:22.396Z,15.80
2019-04-06T09:24:50.572Z,12.90
2019-04-06T09:27:18.822Z,14.43
2019-04-06T09:29:47.004Z,15.27
2019-04-06T09:32:15.222Z,17.67
2019-04-06T09:34:43.424Z,15.90
2019-04-06T09:37:11.615Z,15.10
2019-04-06T09:39:40.389Z,15.83
2019-04-06T09:42:08.609Z,16.83
2019-04-06T09:44:44.753Z,19.17
2019-04-06T09:47:14.658Z,17.70
2019-04-06T09:49:59.976Z,18.10
2019-04-06T09:52:38.634Z,22.60
2019-04-06T09:55:20.644Z,18.60
2019-04-06T09:58:02.528Z,22.13
2019-04-06T10:00:41.557Z,20.70
2019-04-06T10:03:14.475Z,18.50
2019-04-06T10:05:56.515Z,19.97
2019-04-06T10:08:26.272Z,18.90
2019-04-06T10:10:56.056Z,19.27
2019-04-06T10:13:25.825Z,20.33
2019-04-06T10:16:01.473Z,18.80
2019-04-06T10:18:40.217Z,20.73
2019-04-06T10:21:15.725Z,21.57
2019-04-06T10:24:00.790Z,20.67
2019-04-06T10:26:42.315Z,18.20
2019-04-06T10:29:15.142Z,23.27
2019-04-06T10:31:45.130Z,19.77
2019-04-06T10:34:31.540Z,21.53
2019-04-06T10:37:18.030Z,22.43
2019-04-06T10:39:50.617Z,21.57
2019-04-06T10:42:23.111Z,21.30
2019-04-06T10:44:55.669Z,22.70
2019-04-06T10:47:28.433Z,21.97
2019-04-06T10:50:14.901Z,20.90
2019-04-06T10:52:44.678Z,23.70
2019-04-06T10:55:20.207Z,23.10
2019-04-06T10:58:02.088Z,23.40
2019-04-06T11:00:48.501Z,25.23
2019-04-06T11:03:24.818Z,21.27
2019-04-06T11:06:09.710Z,22.97
2019-04-06T11:08:42.256Z,23.33
2019-04-06T11:11:20.381Z,21.50
2019-04-06T11:13:52.236Z,24.10
2019-04-06T11:16:22.061Z,23.43
2019-04-06T11:19:01.466Z,24.83
2019-04-06T11:21:47.992Z,21.57
2019-04-06T11:24:17.768Z,24.53
2019-04-06T11:27:02.897Z,25.37
2019-04-06T11:29:47.748Z,24.63
2019-04-06T11:32:20.242Z,27.07
2019-04-06T11:34:56.353Z,25.07
2019-04-06T11:37:33.124Z,26.77
2019-04-06T11:40:19.860Z,32.40
2019-04-06T11:42:58.647Z,27.47
2019-04-06T11:45:34.904Z,26.47
2019-04-06T11:48:20.024Z,25.73
2019-04-06T11:51:06.534Z,26.70
2019-04-06T11:53:45.129Z,27.53
2019-04-06T11:56:24.002Z,27.93
2019-04-06T11:58:53.989Z,26.93
2019-04-06T12:01:35.377Z,30.37
2019-04-06T12:04:08.338Z,30.07
2019-04-06T12:06:43.926Z,29.83
2019-04-06T12:09:29.729Z,28.60
2019-04-06T12:12:14.967Z,25.80
2019-04-06T12:14:51.143Z,27.00
2019-04-06T12:17:21.053Z,29.63
2019-04-06T12:19:50.986Z,32.33
2019-04-06T12:22:23.719Z,29.73
2019-04-06T12:24:56.165Z,30.27
2019-04-06T12:27:31.930Z,30.03
2019-04-06T12:30:04.433Z,29.87
2019-04-06T12:32:40.120Z,31.20
2019-04-06T12:35:26.760Z,29.67
2019-04-06T12:38:14.824Z,30.73
2019-04-06T12:40:53.146Z,30.23
2019-04-06T12:43:31.077Z,31.50
2019-04-06T12:46:15.201Z,30.57
2019-04-06T12:49:00.098Z,26.27
2019-04-06T12:51:41.925Z,31.23
2019-04-06T12:54:11.708Z,28.13
2019-04-06T12:56:44.602Z,28.57
2019-04-06T12:59:17.529Z,28.60
2019-04-06T13:01:47.706Z,29.23
2019-04-06T13:04:17.453Z,28.33
2019-04-06T13:06:50.066Z,27.33
2019-04-06T13:09:36.502Z,32.07
2019-04-06T13:12:06.427Z,25.30
2019-04-06T13:14:48.249Z,27.33
2019-04-06T13:17:34.542Z,27.53
2019-04-06T13:20:16.549Z,27.57
2019-04-06T13:23:02.671Z,27.03
2019-04-06T13:25:49.434Z,26.33
2019-04-06T13:28:22.512Z,28.20
2019-04-06T13:31:10.978Z,26.73
2019-04-06T13:33:43.829Z,23.83
2019-04-06T13:36:26.230Z,26.73
2019-04-06T13:38:56.120Z,24.07
2019-04-06T13:41:25.898Z,27.83
2019-04-06T13:43:58.831Z,25.27
2019-04-06T13:46:35.309Z,27.10
2019-04-06T13:49:11.037Z,26.97
2019-04-06T13:51:50.003Z,25.93
2019-04-06T13:54:38.160Z,27.13
2019-04-06T13:57:24.140Z,26.63
2019-04-06T13:59:56.580Z,27.30
2019-04-06T14:02:35.105Z,26.87
2019-04-06T14:05:07.965Z,27.40
2019-04-06T14:07:37.976Z,26.77
2019-04-06T14:10:16.722Z,23.37
2019-04-06T14:13:01.353Z,25.03
2019-04-06T14:15:37.084Z,24.67
2019-04-06T14:18:24.992Z,23.80
2019-04-06T14:21:13.013Z,24.70
2019-04-06T14:24:01.049Z,22.97
2019-04-06T14:26:31.020Z,23.80
2019-04-06T14:29:03.741Z,26.00
2019-04-06T14:31:39.925Z,25.70
2019-04-06T14:34:25.786Z,25.90
2019-04-06T14:37:14.026Z,24.73
2019-04-06T14:39:56.098Z,23.87
2019-04-06T14:42:31.964Z,23.23
2019-04-06T14:45:18.104Z,26.13
2019-04-06T14:47:50.793Z,24.60
2019-04-06T14:50:23.708Z,17.50
2019-04-06T14:52:59.452Z,20.33
2019-04-06T14:55:29.208Z,22.13
2019-04-06T14:58:14.059Z,21.60
2019-04-06T15:01:00.617Z,21.07
2019-04-06T15:03:36.029Z,21.43
2019-04-06T15:06:11.615Z,22.07
2019-04-06T15:08:41.479Z,23.13
2019-04-06T15:11:14.790Z,24.07
2019-04-06T15:13:44.655Z,22.47
2019-04-06T15:16:14.477Z,25.93
2019-04-06T15:18:50.410Z,22.87
2019-04-06T15:21:29.808Z,26.47
2019-04-06T15:24:16.324Z,24.43
2019-04-06T15:26:49.034Z,24.17
2019-04-06T15:29:24.784Z,24.23
2019-04-06T15:32:00.909Z,24.53
2019-04-06T15:34:30.735Z,25.47
2019-04-06T15:37:07.741Z,22.30
2019-04-06T15:39:37.705Z,20.30
2019-04-06T15:42:13.415Z,19.63
2019-04-06T15:44:46.565Z,18.70
2019-04-06T15:47:25.704Z,23.97
2019-04-06T15:49:58.182Z,24.13
2019-04-06T15:52:28.012Z,21.80
2019-04-06T15:55:00.866Z,26.93
2019-04-06T15:57:30.640Z,23.17
2019-04-06T16:00:03.355Z,23.27
2019-04-06T16:02:33.556Z,23.10
2019-04-06T16:05:06.391Z,22.27
2019-04-06T16:07:36.203Z,25.07
2019-04-06T16:10:12.890Z,23.30
2019-04-06T16:12:45.710Z,22.57
2019-04-06T16:15:25.267Z,23.23
2019-04-06T16:17:55.096Z,25.70
2019-04-06T16:20:28.047Z,22.10
2019-04-06T16:23:16.395Z,23.87
2019-04-06T16:25:46.368Z,23.63
2019-04-06T16:28:16.133Z,21.50
2019-04-06T16:31:04.167Z,22.53
2019-04-06T16:33:50.572Z,23.67
2019-04-06T16:36:37.968Z,24.43
2019-04-06T16:39:24.332Z,24.53
2019-04-06T16:42:10.561Z,23.07
2019-04-06T16:44:57.262Z,24.53
2019-04-06T16:47:36.044Z,27.00
2019-04-06T16:50:15.793Z,23.07
2019-04-06T16:52:57.916Z,21.57
2019-04-06T16:55:44.283Z,22.20
2019-04-06T16:58:22.770Z,21.57
2019-04-06T17:00:55.577Z,25.53
2019-04-06T17:03:37.597Z,26.63
2019-04-06T17:06:24.069Z,24.40
2019-04-06T17:08:59.964Z,24.17
2019-04-06T17:11:39.363Z,23.37
2019-04-06T17:14:24.244Z,24.93
2019-04-06T17:16:54.040Z,26.13
2019-04-06T17:19:31.849Z,26.47
2019-04-06T17:22:04.223Z,25.13
2019-04-06T17:24:34.025Z,24.97
2019-04-06T17:27:21.709Z,26.97
2019-04-06T17:29:51.678Z,24.57
2019-04-06T17:32:33.807Z,24.37
2019-04-06T17:34:55.977Z,25.80
2019-04-06T17:37:24.627Z,27.43
2019-04-06T17:40:06.065Z,26.67
2019-04-06T17:42:41.815Z,31.90
2019-04-06T17:45:12.064Z,28.70
2019-04-06T17:48:00.182Z,30.80
2019-04-06T17:50:46.636Z,28.50
2019-04-06T17:53:33.235Z,35.00
2019-04-06T17:56:05.892Z,30.77
2019-04-06T17:58:41.891Z,31.70
2019-04-06T18:01:21.002Z,27.17
2019-04-06T18:04:00.010Z,26.33
2019-04-06T18:06:30.430Z,27.97
2019-04-06T18:09:02.730Z,29.30
2019-04-06T18:11:44.586Z,26.63
2019-04-06T18:14:13.672Z,29.47
2019-04-06T18:16:42.005Z,27.33
2019-04-06T18:19:10.240Z,26.67
2019-04-06T18:21:38.444Z,28.20
2019-04-06T18:24:06.580Z,28.03
2019-04-06T18:26:34.729Z,26.70
2019-04-06T18:29:02.872Z,25.17
2019-04-06T18:31:32.659Z,27.93
2019-04-06T18:34:00.851Z,25.57
2019-04-06T18:36:30.629Z,27.77
2019-04-06T18:39:03.486Z,27.67
2019-04-06T18:41:32.125Z,29.40
2019-04-06T18:44:00.391Z,29.23
2019-04-06T18:46:28.553Z,26.37
2019-04-06T18:48:56.777Z,26.50
2019-04-06T18:51:24.912Z,29.10
2019-04-06T18:53:53.079Z,26.23
2019-04-06T18:56:21.247Z,28.80
2019-04-06T18:58:49.438Z,26.53
2019-04-06T19:01:18.010Z,30.03
2019-04-06T19:03:46.305Z,31.60
2019-04-06T19:06:14.713Z,29.57
2019-04-06T19:08:42.920Z,29.07
2019-04-06T19:11:11.424Z,31.23
2019-04-06T19:13:39.611Z,28.23
2019-04-06T19:16:07.835Z,30.70
2019-04-06T19:18:36.281Z,29.00
2019-04-06T19:21:04.674Z,29.10
2019-04-06T19:23:33.380Z,30.40
2019-04-06T19:26:01.942Z,29.87
2019-04-06T19:28:30.273Z,32.70
2019-04-06T19:30:58.620Z,27.13
2019-04-06T19:33:27.281Z,28.57
2019-04-06T19:35:55.545Z,31.90
2019-04-06T19:38:23.703Z,27.20
2019-04-06T19:40:51.820Z,32.77
2019-04-06T19:43:19.992Z,30.47
2019-04-06T19:45:48.646Z,28.90
2019-04-06T19:48:17.057Z,31.87
2019-04-06T19:50:45.197Z,33.07
2019-04-06T19:53:13.434Z,28.83
2019-04-06T19:55:41.605Z,33.47
2019-04-06T19:58:09.764Z,28.70
2019-04-06T20:00:37.944Z,31.00
2019-04-06T20:03:06.183Z,29.83
2019-04-06T20:05:34.628Z,31.60
2019-04-06T20:08:02.774Z,32.70
2019-04-06T20:10:30.903Z,31.03
2019-04-06T20:12:59.612Z,32.10
2019-04-06T20:15:27.859Z,31.60
2019-04-06T20:17:56.388Z,29.67
2019-04-06T20:20:24.702Z,28.00
2019-04-06T20:22:52.830Z,32.27
2019-04-06T20:25:21.105Z,28.87
2019-04-06T20:27:49.249Z,31.30
2019-04-06T20:30:17.920Z,30.03
2019-04-06T20:32:46.210Z,30.77
2019-04-06T20:35:14.622Z,30.43
2019-04-06T20:37:43.300Z,32.17
2019-04-06T20:40:11.895Z,28.97
2019-04-06T20:42:40.420Z,30.20
2019-04-06T20:45:09.290Z,33.17
2019-04-06T20:47:37.490Z,29.87
2019-04-06T20:50:07.021Z,30.13
2019-04-06T20:52:35.928Z,30.87
2019-04-06T20:55:08.172Z,33.60
2019-04-06T20:57:36.392Z,30.87
2019-04-06T21:00:07.857Z,29.50
2019-04-06T21:02:36.036Z,32.83
2019-04-06T21:05:06.740Z,31.87
2019-04-06T21:07:35.392Z,32.60
2019-04-06T21:10:04.502Z,33.73
2019-04-06T21:12:32.975Z,32.70
2019-04-06T21:15:01.224Z,32.30
2019-04-06T21:17:29.401Z,30.77
2019-04-06T21:19:57.535Z,31.93
2019-04-06T21:22:26.197Z,31.80
2019-04-06T21:24:54.779Z,32.13
2019-04-06T21:27:22.962Z,34.40
2019-04-06T21:29:51.686Z,33.17
2019-04-06T21:32:20.657Z,31.53
2019-04-06T21:34:49.510Z,31.13
2019-04-06T21:37:17.848Z,32.17
2019-04-06T21:39:46.776Z,33.90
2019-04-06T21:42:15.017Z,33.97
2019-04-06T21:44:43.442Z,30.83
2019-04-06T21:47:12.145Z,32.37
2019-04-06T21:49:40.763Z,31.93
2019-04-06T21:52:08.923Z,32.77
2019-04-06T21:54:37.159Z,31.20
2019-04-06T21:57:06.183Z,37.80
2019-04-06T21:59:34.417Z,32.27
2019-04-06T22:02:02.688Z,33.97
2019-04-06T22:04:30.816Z,32.37
2019-04-06T22:06:59.027Z,36.43
2019-04-06T22:09:27.233Z,40.37
2019-04-06T22:11:55.866Z,35.00
2019-04-06T22:14:24.172Z,34.13
2019-04-06T22:16:52.311Z,36.47
2019-04-06T22:19:20.422Z,32.10
2019-04-06T22:21:48.562Z,31.00
2019-04-06T22:24:17.102Z,34.93
2019-04-06T22:26:45.932Z,35.97
2019-04-06T22:29:14.163Z,31.83
2019-04-06T22:31:42.516Z,38.23
2019-04-06T22:34:10.965Z,36.73
2019-04-06T22:36:39.102Z,43.00
2019-04-06T22:39:08.861Z,42.17
2019-04-06T22:41:37.762Z,38.77
2019-04-06T22:44:06.156Z,37.53
2019-04-06T22:46:35.313Z,41.63
2019-04-06T22:49:03.680Z,40.27
2019-04-06T22:51:32.213Z,36.93
2019-04-06T22:54:00.338Z,38.13
2019-04-06T22:56:28.537Z,35.27
2019-04-06T22:58:56.681Z,33.60
2019-04-06T23:01:26.674Z,31.60
2019-04-06T23:03:59.615Z,32.37
2019-04-06T23:06:32.327Z,36.40
2019-04-06T23:09:00.782Z,36.87
2019-04-06T23:11:29.859Z,33.73
2019-04-06T23:13:58.456Z,35.20
2019-04-06T23:16:26.591Z,35.10
2019-04-06T23:18:54.798Z,33.17
2019-04-06T23:21:22.917Z,37.67
2019-04-06T23:23:51.063Z,34.57
2019-04-06T23:26:19.244Z,36.50
2019-04-06T23:28:47.398Z,38.93
2019-04-06T23:31:15.518Z,36.00
2019-04-06T23:33:43.655Z,34.63
2019-04-06T23:36:11.947Z,33.53
2019-04-06T23:38:40.459Z,34.83
2019-04-06T23:41:08.596Z,32.20
2019-04-06T23:43:36.993Z,35.40
2019-04-06T23:46:05.228Z,34.60
2019-04-06T23:48:33.672Z,35.27
2019-04-06T23:51:01.944Z,33.33
2019-04-06T23:53:30.467Z,38.07
2019-04-06T23:55:58.854Z,39.40
2019-04-06T23:58:26.972Z,39.77
